Time;durP1;ratioP1;P1;durP2;ratioP2;P2;SDS_P1;SDS_P2;PMS_P1;PMS_P2;Temp;Humidity;BMP_temperature;BMP_pressure;BME280_temperature;BME280_humidity;BME280_pressure;Samples;Min_cycle;Max_cycle;Signal;HPM_P1;HPM_P2
2022/05/03 00:01:29;;;;;;;13.38;12.30;;;11.10;99.90;;;11.89;83.77;97704.75;5257742;28;20703;-57
2022/05/03 00:04:09;;;;;;;14.45;13.23;;;11.00;99.90;;;11.77;83.79;97710.09;5265124;28;20212;-58
2022/05/03 00:06:52;;;;;;;14.25;12.95;;;10.90;99.90;;;11.75;83.99;97695.47;5264980;28;20667;-58
2022/05/03 00:09:40;;;;;;;13.63;12.50;;;10.80;99.90;;;11.57;84.37;97706.53;5266457;28;20200;-58
2022/05/03 00:12:21;;;;;;;13.40;12.30;;;10.70;99.90;;;11.51;85.09;97706.25;5262972;28;20301;-57
2022/05/03 00:14:57;;;;;;;13.80;12.73;;;10.70;99.90;;;11.50;85.52;97699.34;5265551;28;20188;-58
2022/05/03 00:17:33;;;;;;;14.23;13.13;;;10.70;99.90;;;11.46;84.50;97707.69;5265610;28;20214;-56
2022/05/03 00:20:08;;;;;;;14.20;13.05;;;10.60;99.90;;;11.41;84.89;97710.00;5264687;28;20188;-57
2022/05/03 00:22:42;;;;;;;14.23;13.02;;;10.60;99.90;;;11.30;86.24;97710.25;5261102;28;20191;-58
2022/05/03 00:25:15;;;;;;;14.88;13.68;;;10.60;99.90;;;11.28;86.04;97708.50;5263707;28;20218;-55
2022/05/03 00:27:50;;;;;;;15.00;13.80;;;10.50;99.90;;;11.07;86.51;97716.72;5265794;28;20252;-58
2022/05/03 00:30:24;;;;;;;14.10;13.00;;;10.30;99.90;;;11.06;87.06;97728.63;5267196;28;20188;-53
2022/05/03 00:33:00;;;;;;;15.23;14.03;;;10.30;99.90;;;10.99;86.42;97716.34;5263342;28;20226;-55
2022/05/03 00:35:33;;;;;;;14.40;13.30;;;10.20;99.90;;;11.00;87.41;97715.53;5265406;28;20253;-56
2022/05/03 00:38:06;;;;;;;15.35;14.05;;;10.20;99.90;;;10.94;87.15;97708.41;5271567;28;20660;-54
2022/05/03 00:40:45;;;;;;;16.38;15.07;;;10.20;99.90;;;10.93;87.06;97713.44;5266140;28;20234;-56
2022/05/03 00:43:26;;;;;;;15.73;14.48;;;10.20;99.90;;;10.90;87.27;97709.06;5263945;28;20213;-54
2022/05/03 00:46:05;;;;;;;15.18;13.88;;;10.10;99.90;;;10.86;87.53;97712.22;5264802;28;20239;-56
2022/05/03 00:49:20;;;;;;;16.03;14.63;;;10.10;99.90;;;10.75;87.90;97708.22;5264607;28;20199;-55
2022/05/03 00:52:02;;;;;;;15.23;14.02;;;10.00;99.90;;;10.76;87.49;97703.22;5263811;28;20245;-55
2022/05/03 00:54:48;;;;;;;15.17;13.97;;;10.00;99.90;;;10.80;87.06;97696.56;5263464;28;20231;-53
2022/05/03 00:57:37;;;;;;;14.93;13.70;;;10.00;99.90;;;10.79;87.95;97690.59;5264853;28;20596;-57
2022/05/03 01:00:13;;;;;;;15.68;14.38;;;10.00;99.90;;;10.77;88.13;97692.16;5264061;28;20193;-52
2022/05/03 01:03:18;;;;;;;15.40;14.10;;;10.00;99.90;;;10.80;87.74;97704.25;5262121;28;20199;-56
2022/05/03 01:06:07;;;;;;;15.90;14.50;;;10.00;99.90;;;10.82;87.55;97700.97;5264387;28;20306;-57
2022/05/03 01:08:56;;;;;;;15.30;14.00;;;10.00;99.90;;;10.74;87.72;97692.00;5263470;28;20286;-55
2022/05/03 01:11:38;;;;;;;15.33;14.03;;;10.00;99.90;;;10.82;87.37;97695.00;5259619;28;20646;-56
2022/05/03 01:14:33;;;;;;;14.63;13.43;;;10.00;99.90;;;10.83;87.01;97696.72;5266005;28;20288;-53
2022/05/03 01:17:14;;;;;;;15.60;14.20;;;10.00;99.90;;;10.82;87.08;97695.00;5261502;28;20619;-52
2022/05/03 01:19:57;;;;;;;15.53;14.23;;;9.90;99.90;;;10.82;88.57;97695.84;5263515;28;20342;-55
2022/05/03 01:23:02;;;;;;;13.97;12.77;;;10.00;99.90;;;10.78;87.33;97691.38;5266237;28;20196;-56
2022/05/03 01:26:16;;;;;;;15.53;14.23;;;10.00;99.90;;;10.76;86.69;97692.97;5264143;28;20341;-54
2022/05/03 01:29:06;;;;;;;14.52;13.32;;;9.90;99.90;;;10.77;86.82;97692.16;5260803;28;20287;-53
2022/05/03 01:31:40;;;;;;;14.73;13.53;;;9.90;99.90;;;10.78;87.24;97691.38;5261011;28;20677;-56
2022/05/03 01:34:20;;;;;;;14.47;13.20;;;9.80;99.90;;;10.71;86.63;97691.84;5264894;28;20218;-55
2022/05/03 01:37:08;;;;;;;13.93;12.85;;;9.80;99.90;;;10.68;87.45;97690.81;5263864;28;20307;-55
2022/05/03 01:40:03;;;;;;;13.40;12.27;;;9.80;99.90;;;10.69;86.63;97688.31;5263354;28;20760;-56
2022/05/03 01:42:57;;;;;;;14.07;12.87;;;9.70;99.90;;;10.56;86.84;97693.59;5263976;28;20196;-52
2022/05/03 01:45:37;;;;;;;13.73;12.63;;;9.70;99.90;;;10.45;86.25;97687.00;5264753;28;20219;-56
2022/05/03 01:51:46;;;;;;;13.23;12.20;;;9.40;99.90;;;10.29;86.95;97690.38;5262054;28;20609;-56
2022/05/03 01:54:44;;;;;;;12.87;11.87;;;9.40;99.90;;;10.28;86.53;97686.97;5259419;28;20320;-53
2022/05/03 01:57:29;;;;;;;12.00;11.00;;;9.40;99.90;;;10.24;86.01;97692.63;5255071;28;20679;-53
2022/05/03 02:00:09;;;;;;;12.33;11.43;;;9.30;99.90;;;10.14;87.09;97693.81;5258874;28;20234;-55
2022/05/03 02:02:54;;;;;;;12.00;10.90;;;9.20;99.90;;;10.09;87.91;97691.78;5260918;28;20628;-56
2022/05/03 02:05:52;;;;;;;11.67;10.77;;;9.20;99.90;;;10.03;87.37;97704.22;5264843;28;20657;-55
2022/05/03 02:08:32;;;;;;;12.33;11.50;;;9.10;99.90;;;10.01;87.51;97704.13;5263518;28;20740;-57
2022/05/03 02:11:39;;;;;;;13.77;12.57;;;9.20;99.90;;;9.98;88.14;97697.97;5263378;28;20223;-55
2022/05/03 02:17:14;;;;;;;12.53;11.43;;;9.20;99.90;;;9.93;88.30;97696.06;5264701;28;20750;-57
2022/05/03 02:20:27;;;;;;;13.33;12.27;;;9.10;99.90;;;9.92;87.70;97699.38;5257576;28;20204;-55
2022/05/03 02:23:21;;;;;;;13.47;12.37;;;9.10;99.90;;;9.89;88.13;97698.34;5264501;28;20642;-58
2022/05/03 02:26:11;;;;;;;14.20;13.10;;;9.10;99.90;;;9.95;88.06;97705.47;5262044;28;20314;-58
2022/05/03 02:28:49;;;;;;;15.27;13.87;;;9.10;99.90;;;9.95;88.88;97708.00;5261371;28;20234;-58
2022/05/03 02:31:33;;;;;;;14.70;13.50;;;9.10;99.90;;;9.87;88.61;97699.91;5262312;28;20287;-58
2022/05/03 02:34:30;;;;;;;13.37;12.33;;;9.00;99.90;;;9.82;87.95;97692.00;5263641;28;20200;-56
2022/05/03 02:37:14;;;;;;;13.73;12.53;;;8.90;99.90;;;9.77;88.31;97693.41;5258050;28;20688;-57
2022/05/03 02:39:53;;;;;;;14.80;13.70;;;8.90;99.90;;;9.80;88.51;97698.69;5262956;28;20227;-56
2022/05/03 02:42:27;;;;;;;13.70;12.67;;;8.90;99.90;;;9.82;87.66;97689.44;5259434;28;20306;-60
2022/05/03 02:45:04;;;;;;;13.90;12.90;;;8.90;99.90;;;9.78;88.01;97695.16;5262032;28;20251;-57
2022/05/03 02:47:45;;;;;;;13.27;12.20;;;8.90;99.90;;;9.70;88.04;97697.28;5262171;28;20365;-56
2022/05/03 02:50:21;;;;;;;13.10;12.20;;;8.80;99.90;;;9.76;87.35;97690.75;5263503;28;20290;-58
2022/05/03 02:53:02;;;;;;;12.90;11.90;;;8.80;99.90;;;9.76;86.81;97691.66;5263334;28;20230;-56
2022/05/03 02:55:50;;;;;;;13.07;11.93;;;8.80;99.90;;;9.77;86.42;97695.09;5258181;28;20322;-57
2022/05/03 02:58:44;;;;;;;13.03;12.03;;;8.70;99.90;;;9.63;86.40;97700.25;5261651;28;20972;-53
2022/05/03 03:01:48;;;;;;;12.57;11.47;;;8.60;99.90;;;9.49;86.77;97701.13;5260642;28;20231;-57
2022/05/03 03:04:36;;;;;;;12.10;11.10;;;8.60;99.90;;;9.45;86.78;97699.22;5260758;28;20636;-58
2022/05/03 03:07:14;;;;;;;13.30;12.23;;;8.50;99.90;;;9.36;87.58;97704.66;5260514;28;20239;-57
2022/05/03 03:09:54;;;;;;;12.70;11.60;;;8.50;99.90;;;9.32;87.24;97700.13;5264146;28;20291;-58
2022/05/03 03:12:39;;;;;;;12.63;11.67;;;8.50;99.90;;;9.29;87.67;97696.53;5259681;28;20563;-58
2022/05/03 03:15:17;;;;;;;13.00;11.90;;;8.40;99.90;;;9.28;87.16;97690.56;5265453;28;20291;-57
2022/05/03 03:17:53;;;;;;;13.10;12.00;;;8.40;99.90;;;9.28;87.38;97694.78;5263182;28;20251;-57
2022/05/03 03:20:27;;;;;;;12.30;11.40;;;8.40;99.90;;;9.10;87.86;97692.00;5266753;28;20203;-58
2022/05/03 03:23:03;;;;;;;14.50;13.30;;;8.30;99.90;;;9.19;88.13;97695.13;5270345;28;20285;-55
2022/05/03 03:25:39;;;;;;;13.70;12.53;;;8.30;99.90;;;9.06;88.13;97687.53;5267301;28;20314;-58
2022/05/03 03:28:13;;;;;;;14.77;13.60;;;8.20;99.90;;;9.06;88.28;97683.28;5265680;28;20219;-57
2022/05/03 03:30:50;;;;;;;14.83;13.60;;;8.30;99.90;;;9.01;88.30;97690.69;5268042;28;20547;-57
2022/05/03 03:33:23;;;;;;;13.03;12.03;;;8.20;99.90;;;8.88;88.16;97688.16;5265552;28;20282;-53
2022/05/03 03:36:00;;;;;;;13.30;12.30;;;8.10;99.90;;;8.70;88.95;97698.13;5268101;28;20310;-55
2022/05/03 03:38:40;;;;;;;13.27;12.27;;;7.90;99.90;;;8.74;88.70;97699.19;5267319;28;20231;-53
2022/05/03 03:41:15;;;;;;;14.47;13.17;;;7.90;99.90;;;8.71;89.59;97699.88;5265384;28;20257;-55
2022/05/03 03:43:53;;;;;;;15.10;13.90;;;7.90;99.90;;;8.66;90.27;97700.38;5261877;28;20245;-53
2022/05/03 03:46:27;;;;;;;14.43;13.33;;;7.90;99.90;;;8.67;89.85;97704.69;5267353;28;20282;-58
2022/05/03 03:49:00;;;;;;;14.67;13.47;;;7.90;99.90;;;8.56;90.16;97693.84;5267090;28;20228;-56
2022/05/03 03:51:33;;;;;;;14.93;13.63;;;7.80;99.90;;;8.57;89.92;97704.13;5265313;28;20302;-58
2022/05/03 03:54:07;;;;;;;15.37;14.17;;;7.80;99.90;;;8.49;90.66;97706.97;5269386;28;20200;-56
2022/05/03 03:56:42;;;;;;;16.10;14.73;;;7.70;99.90;;;8.45;90.97;97700.81;5266380;28;20251;-56
2022/05/03 03:59:15;;;;;;;15.00;13.80;;;7.60;99.90;;;8.52;90.90;97702.94;5266524;28;20659;-58
2022/05/03 04:01:49;;;;;;;15.83;14.50;;;7.70;99.90;;;8.50;91.42;97704.53;5264121;28;20200;-56
2022/05/03 04:04:27;;;;;;;16.97;15.57;;;7.70;99.90;;;8.53;92.29;97708.94;5265144;28;20211;-54
2022/05/03 04:07:01;;;;;;;16.67;15.27;;;7.90;99.90;;;8.53;92.47;97704.72;5265856;28;20302;-57
2022/05/03 04:09:34;;;;;;;16.37;14.97;;;7.80;99.90;;;8.60;91.95;97710.19;5266723;28;20659;-58
2022/05/03 04:12:09;;;;;;;15.17;13.93;;;7.90;99.90;;;8.62;91.30;97708.63;5265507;28;20224;-57
2022/05/03 04:14:42;;;;;;;15.50;14.20;;;7.90;99.90;;;8.51;91.15;97707.97;5265956;28;20363;-57
2022/05/03 04:17:15;;;;;;;14.17;13.00;;;7.80;99.90;;;8.52;91.42;97708.03;5264334;28;20299;-58
2022/05/03 04:19:49;;;;;;;15.93;14.63;;;7.80;99.90;;;8.59;90.90;97703.34;5264134;28;20643;-58
2022/05/03 04:22:28;;;;;;;14.53;13.37;;;7.90;99.90;;;8.65;91.62;97702.06;5259620;28;20210;-58
2022/05/03 04:25:04;;;;;;;14.53;13.43;;;7.90;99.90;;;8.63;90.22;97705.28;5262210;28;20307;-56
2022/05/03 04:27:39;;;;;;;16.37;14.97;;;7.90;99.90;;;8.59;90.26;97711.88;5267032;28;20215;-55
2022/05/03 04:30:14;;;;;;;15.70;14.40;;;7.90;99.90;;;8.51;90.08;97706.28;5265531;28;20298;-52
2022/05/03 04:32:47;;;;;;;15.53;14.13;;;7.80;99.90;;;8.56;89.85;97706.59;5263409;28;20234;-57
2022/05/03 04:35:20;;;;;;;15.87;14.47;;;7.80;99.90;;;8.59;90.14;97704.22;5264203;28;20203;-56
2022/05/03 04:37:53;;;;;;;15.37;14.10;;;7.90;99.90;;;8.66;90.38;97715.66;5264423;28;20338;-56
2022/05/03 04:40:26;;;;;;;15.53;14.13;;;7.90;99.90;;;8.57;89.80;97718.53;5264366;28;20299;-56
2022/05/03 04:43:00;;;;;;;14.77;13.57;;;7.80;99.90;;;8.67;89.79;97715.78;5266107;28;20200;-58
2022/05/03 04:45:33;;;;;;;15.33;13.97;;;7.90;99.90;;;8.65;89.54;97716.47;5259016;28;20226;-58
2022/05/03 04:48:07;;;;;;;14.87;13.67;;;7.90;99.90;;;8.73;89.78;97722.94;5265155;28;20676;-56
2022/05/03 04:50:41;;;;;;;14.97;13.77;;;8.00;99.90;;;8.78;90.46;97726.59;5266791;28;20238;-58
2022/05/03 04:53:16;;;;;;;14.97;13.77;;;8.10;99.90;;;8.86;90.07;97729.63;5265267;28;20731;-58
2022/05/03 04:55:49;;;;;;;15.10;13.83;;;8.20;99.90;;;8.93;89.13;97724.16;5262462;28;20322;-58
2022/05/03 04:58:23;;;;;;;13.77;12.67;;;8.20;99.90;;;9.02;88.52;97738.31;5265119;28;20295;-58
2022/05/03 05:00:56;;;;;;;15.00;13.70;;;8.30;99.90;;;9.10;88.51;97736.25;5264317;28;20691;-57
2022/05/03 05:03:30;;;;;;;13.43;12.30;;;8.40;99.90;;;9.18;88.11;97736.69;5265460;28;20219;-58
2022/05/03 05:06:03;;;;;;;13.97;12.90;;;8.40;99.90;;;9.30;88.38;97731.44;5264537;28;20254;-57
2022/05/03 05:08:36;;;;;;;14.03;12.93;;;8.60;99.90;;;9.39;88.33;97737.13;5267477;28;20219;-58
2022/05/03 05:11:10;;;;;;;13.50;12.50;;;8.60;99.90;;;9.52;88.14;97739.59;5266648;28;20630;-57
2022/05/03 05:13:45;;;;;;;14.03;12.93;;;8.70;99.90;;;9.69;88.01;97740.56;5270308;28;20224;-56
2022/05/03 05:16:19;;;;;;;13.83;12.73;;;8.90;99.90;;;9.90;87.40;97741.84;5262529;28;20247;-59
2022/05/03 05:18:52;;;;;;;13.33;12.17;;;9.10;99.90;;;10.21;85.75;97746.09;5262467;28;20200;-57
2022/05/03 05:21:25;;;;;;;12.90;11.90;;;9.40;99.90;;;10.71;83.97;97745.53;5259061;28;20192;-56
2022/05/03 05:24:00;;;;;;;12.80;11.67;;;9.70;99.90;;;11.25;80.74;97744.16;5263377;28;20207;-56
2022/05/03 05:26:33;;;;;;;13.23;12.20;;;10.30;99.90;;;11.73;78.19;97738.91;5260229;28;20231;-58
2022/05/03 05:29:07;;;;;;;12.27;11.30;;;10.70;99.90;;;12.15;76.61;97740.19;5263476;28;20196;-56
2022/05/03 05:31:41;;;;;;;12.63;11.63;;;11.00;99.90;;;12.51;74.58;97740.22;5264265;28;20293;-56
2022/05/03 05:34:14;;;;;;;12.30;11.35;;;11.30;99.90;;;12.90;72.05;97736.88;5262997;28;20729;-54
2022/05/03 05:36:47;;;;;;;12.48;11.57;;;11.60;99.90;;;13.13;71.94;97740.47;5265309;28;20238;-57
2022/05/03 05:39:20;;;;;;;11.43;10.57;;;11.70;99.90;;;13.39;70.10;97736.53;5265109;28;20200;-55
2022/05/03 05:41:55;;;;;;;11.73;10.82;;;11.90;99.90;;;13.66;69.07;97732.59;5265111;28;20287;-56
2022/05/03 05:44:30;;;;;;;12.27;11.27;;;12.10;99.90;;;13.79;68.38;97733.97;5262792;28;20199;-57
2022/05/03 05:47:04;;;;;;;11.70;10.80;;;12.20;99.90;;;14.00;nan;97735.72;5262801;28;20420;-58
2022/05/03 05:49:38;;;;;;;11.73;10.73;;;12.40;99.90;;;13.82;67.32;97736.72;5266646;28;20195;-57
2022/05/03 05:55:01;;;;;;;12.02;10.82;;;12.50;99.90;;;14.48;66.04;97730.78;5233145;28;20239;-58
2022/05/03 05:57:34;;;;;;;12.00;11.07;;;12.70;99.90;;;14.71;64.76;97731.72;5258800;28;20306;-57
2022/05/03 06:00:10;;;;;;;11.60;10.70;;;12.90;99.90;;;15.04;63.44;97732.13;5260585;28;20228;-58
2022/05/03 06:02:43;;;;;;;11.57;10.70;;;13.10;99.90;;;15.42;63.42;97730.09;5262426;28;20294;-57
2022/05/03 06:05:16;;;;;;;12.20;11.30;;;13.40;99.90;;;15.39;62.86;97732.56;5265565;28;20294;-57
2022/05/03 06:07:49;;;;;;;12.43;11.45;;;13.50;99.90;;;15.89;61.53;97728.34;5262816;28;20318;-57
2022/05/03 06:10:23;;;;;;;12.13;10.95;;;13.80;99.90;;;16.26;59.61;97727.00;5261827;28;20265;-57
2022/05/03 06:12:59;;;;;;;12.10;11.20;;;14.20;99.90;;;16.50;59.27;97727.75;5262735;28;20684;-58
2022/05/03 06:15:33;;;;;;;13.63;12.52;;;14.30;99.90;;;16.41;58.68;97725.75;5262143;28;20539;-55
2022/05/03 06:18:08;;;;;;;13.32;12.25;;;14.30;99.90;;;16.56;58.47;97734.81;5261876;28;20195;-56
2022/05/03 06:20:41;;;;;;;12.23;11.32;;;14.30;99.90;;;16.88;58.34;97733.25;5262052;28;20732;-57
2022/05/03 06:23:18;;;;;;;12.40;11.48;;;14.60;99.90;;;17.04;58.67;97732.88;5260523;28;20199;-56
2022/05/03 06:25:52;;;;;;;12.38;11.38;;;14.90;99.90;;;16.79;59.32;97732.97;5262478;28;20347;-57
2022/05/03 06:28:25;;;;;;;12.85;11.85;;;15.10;99.90;;;17.43;57.59;97721.97;5260527;28;20802;-56
2022/05/03 06:31:00;;;;;;;11.65;10.70;;;15.40;99.90;;;17.72;55.75;97732.22;5263950;28;20196;-58
2022/05/03 06:33:33;;;;;;;11.43;10.55;;;15.70;99.90;;;17.94;55.18;97723.31;5260968;28;20793;-57
2022/05/03 06:36:06;;;;;;;11.70;10.90;;;15.90;99.90;;;18.23;54.48;97732.72;5265441;28;20258;-58
2022/05/03 06:38:39;;;;;;;11.80;10.98;;;16.30;99.90;;;18.13;55.37;97737.63;5263509;28;20250;-58
2022/05/03 06:41:13;;;;;;;11.80;10.75;;;16.40;99.90;;;18.74;53.20;97736.53;5262849;28;20644;-57
2022/05/03 06:43:46;;;;;;;12.63;11.68;;;16.80;99.90;;;19.13;51.63;97735.66;5261316;28;20567;-58
2022/05/03 06:46:21;;;;;;;12.57;11.65;;;17.10;99.40;;;19.40;50.94;97739.66;5263330;28;20220;-56
2022/05/03 06:48:55;;;;;;;12.90;11.90;;;17.30;99.10;;;19.30;51.52;97734.31;5264909;28;20200;-57
2022/05/03 06:51:28;;;;;;;12.10;11.07;;;17.60;98.50;;;19.50;50.75;97736.44;5262332;28;20219;-59
2022/05/03 06:54:02;;;;;;;11.93;11.02;;;17.20;98.80;;;19.47;51.27;97737.25;5259522;28;20196;-58
2022/05/03 06:56:36;;;;;;;12.20;11.30;;;17.30;99.00;;;19.59;50.91;97744.38;5264694;28;20754;-56
2022/05/03 06:59:09;;;;;;;11.07;10.10;;;17.40;98.90;;;19.73;50.87;97729.13;5265352;28;20589;-58
2022/05/03 07:01:44;;;;;;;10.75;9.95;;;17.80;98.40;;;19.83;50.44;97736.25;5261032;28;20283;-59
2022/05/03 07:04:17;;;;;;;11.50;10.70;;;17.70;98.20;;;20.03;49.96;97737.47;5263536;28;20203;-57
2022/05/03 07:06:50;;;;;;;11.13;10.32;;;18.10;97.90;;;20.31;49.74;97740.53;5262832;28;20314;-59
2022/05/03 07:09:23;;;;;;;10.95;10.15;;;18.30;98.20;;;20.35;49.60;97742.34;5260951;28;20231;-59
2022/05/03 07:11:56;;;;;;;10.48;9.68;;;18.50;97.50;;;20.59;49.49;97744.47;5260542;28;20651;-58
2022/05/03 07:14:29;;;;;;;10.85;10.10;;;18.70;97.10;;;21.01;48.16;97740.78;5259736;28;20673;-58
2022/05/03 07:17:05;;;;;;;10.68;9.82;;;19.10;96.40;;;21.11;47.73;97746.97;5258352;28;20216;-59
2022/05/03 07:22:47;;;;;;;9.55;8.90;;;18.90;97.20;;;20.49;50.22;97750.38;5261742;28;20283;-59
2022/05/03 07:25:20;;;;;;;10.55;9.75;;;18.70;97.20;;;21.25;48.60;97739.34;5256188;28;20204;-58
2022/05/03 07:27:53;;;;;;;10.52;9.80;;;19.20;96.90;;;21.09;49.27;97739.16;5263447;28;20220;-57
2022/05/03 07:30:26;;;;;;;10.52;9.73;;;19.30;97.00;;;21.53;48.20;97736.28;5269994;28;20246;-59
2022/05/03 07:33:00;;;;;;;10.10;9.40;;;19.30;96.80;;;21.67;47.57;97736.44;5261031;28;20304;-59
2022/05/03 07:35:33;;;;;;;9.55;8.82;;;19.70;96.00;;;22.15;46.13;97726.47;5263141;28;20226;-59
2022/05/03 07:38:07;;;;;;;10.43;9.63;;;20.00;95.70;;;22.00;46.51;97735.88;5263091;28;20295;-59
2022/05/03 07:40:40;;;;;;;9.23;8.57;;;20.20;95.00;;;22.83;44.24;97731.38;5265140;28;20286;-59
2022/05/03 07:43:13;;;;;;;9.15;8.45;;;20.40;94.30;;;22.89;43.25;97728.84;5265821;28;20287;-59
2022/05/03 07:45:46;;;;;;;9.63;9.00;;;20.40;93.70;;;23.15;42.85;97730.75;5263395;28;20291;-59
2022/05/03 07:48:21;;;;;;;8.60;8.00;;;20.60;93.60;;;23.63;41.80;97733.56;5263719;28;20678;-59
2022/05/03 07:50:54;;;;;;;9.15;8.35;;;21.30;92.20;;;23.72;41.72;97726.69;5261528;28;20424;-58
2022/05/03 07:53:28;;;;;;;7.80;7.20;;;21.50;92.10;;;23.73;41.36;97737.97;5260924;28;20192;-58
2022/05/03 07:56:01;;;;;;;7.55;6.95;;;21.50;91.70;;;23.52;40.51;97730.91;5262493;28;20224;-58
2022/05/03 07:58:35;;;;;;;7.60;7.10;;;21.70;90.60;;;23.29;41.50;97731.69;5261545;28;20649;-58
2022/05/03 08:01:08;;;;;;;8.15;7.50;;;21.50;91.10;;;22.45;44.13;97737.19;5264981;28;20269;-58
2022/05/03 08:03:43;;;;;;;7.55;7.05;;;20.80;92.60;;;22.96;43.51;97734.13;5267103;28;20257;-56
2022/05/03 08:06:16;;;;;;;8.20;7.60;;;21.00;92.30;;;23.28;42.09;97732.53;5263485;28;20219;-57
2022/05/03 08:08:49;;;;;;;7.78;7.18;;;21.30;91.30;;;23.34;42.21;97729.97;5264757;28;20315;-56
2022/05/03 08:11:22;;;;;;;7.03;6.53;;;21.40;91.50;;;23.60;41.55;97739.63;5263632;28;20613;-57
2022/05/03 08:13:55;;;;;;;7.10;6.65;;;21.80;90.90;;;23.62;41.35;97737.91;5266564;28;20283;-54
2022/05/03 08:16:30;;;;;;;6.45;5.95;;;22.00;90.60;;;23.68;40.60;97732.69;5265020;28;20752;-54
2022/05/03 08:19:05;;;;;;;5.40;5.10;;;22.10;89.80;;;23.33;40.94;97730.84;5266568;28;20207;-56
2022/05/03 08:21:39;;;;;;;5.82;5.43;;;21.80;89.90;;;23.69;41.09;97733.56;5266649;28;20286;-57
2022/05/03 08:24:12;;;;;;;6.25;5.85;;;22.20;89.80;;;24.12;39.19;97731.94;5263179;28;20239;-58
2022/05/03 08:26:45;;;;;;;6.53;6.03;;;22.80;86.20;;;23.89;40.44;97725.81;5266534;28;20310;-56
2022/05/03 08:29:19;;;;;;;6.05;5.65;;;22.40;88.00;;;24.03;39.79;97734.53;5265018;28;20774;-56
2022/05/03 08:31:52;;;;;;;6.18;5.78;;;22.60;87.60;;;23.92;40.26;97738.88;5261074;28;20633;-55
2022/05/03 08:34:26;;;;;;;5.65;5.25;;;22.60;88.00;;;24.20;39.53;97742.41;5265028;28;20732;-55
2022/05/03 08:42:41;;;;;;;6.05;5.65;;;22.80;86.30;;;23.68;41.19;97742.28;5267274;28;20303;-56
2022/05/03 08:45:14;;;;;;;5.28;4.78;;;22.50;87.70;;;24.19;39.48;97740.69;5265789;28;20207;-53
2022/05/03 08:47:48;;;;;;;6.05;5.65;;;22.90;84.90;;;24.47;38.22;97742.47;5260146;28;20224;-57
2022/05/03 08:50:24;;;;;;;5.25;4.95;;;23.10;84.10;;;24.59;37.56;97741.59;5264574;28;20295;-56
2022/05/03 08:53:00;;;;;;;5.70;5.30;;;23.50;82.40;;;24.38;38.03;97741.53;5264290;28;20195;-56
2022/05/03 08:55:33;;;;;;;4.95;4.47;;;23.00;83.70;;;24.24;38.13;97747.66;5265212;28;20636;-57
2022/05/03 08:58:06;;;;;;;4.85;4.55;;;23.00;83.80;;;24.13;38.47;97730.22;5264809;28;20192;-58
2022/05/03 09:00:39;;;;;;;5.43;5.00;;;22.90;84.10;;;23.85;39.51;97737.13;5262789;28;20192;-56
2022/05/03 09:03:14;;;;;;;4.57;4.28;;;22.70;85.10;;;23.75;37.56;97739.72;5268265;28;20231;-58
2022/05/03 09:05:53;;;;;;;4.78;4.38;;;22.60;81.70;;;23.51;38.66;97729.16;5261264;28;20820;-57
2022/05/03 09:08:26;;;;;;;4.97;4.60;;;22.40;83.10;;;23.54;39.79;97730.03;5261106;28;20227;-56
2022/05/03 09:11:00;;;;;;;4.43;4.13;;;22.40;84.90;;;23.70;39.90;97728.41;5264602;28;20236;-57
2022/05/03 09:13:46;;;;;;;4.90;4.50;;;22.70;85.10;;;23.84;38.94;97731.06;5257295;28;20203;-56
2022/05/03 09:16:20;;;;;;;4.00;3.70;;;23.00;83.00;;;24.16;37.92;97725.88;5261435;28;20246;-57
2022/05/03 09:18:53;;;;;;;4.30;4.10;;;23.10;81.30;;;24.10;38.63;97725.88;5264803;28;20195;-54
2022/05/03 09:24:20;;;;;;;4.45;4.25;;;23.20;81.50;;;24.37;37.40;97724.13;5257583;28;20250;-57
2022/05/03 09:26:54;;;;;;;4.53;4.22;;;23.60;79.90;;;24.36;37.71;97719.78;5258480;28;20638;-55
2022/05/03 09:29:27;;;;;;;4.30;4.00;;;23.50;80.20;;;24.00;37.65;97721.50;5261855;28;20258;-57
2022/05/03 09:32:00;;;;;;;5.75;4.35;;;23.20;80.30;;;23.88;38.68;97719.72;5264384;28;20249;-56
2022/05/03 09:34:33;;;;;;;4.63;4.32;;;23.00;81.70;;;23.66;38.88;97718.75;5260410;28;20201;-55
2022/05/03 09:37:09;;;;;;;4.60;4.30;;;22.80;82.50;;;23.62;38.31;97717.03;5262527;28;20656;-57
2022/05/03 09:39:48;;;;;;;4.63;4.30;;;22.70;80.90;;;23.74;39.26;97714.47;5269157;28;20198;-53
2022/05/03 09:42:24;;;;;;;4.93;4.53;;;22.60;83.00;;;23.93;37.89;97717.13;5260086;28;20222;-55
2022/05/03 09:45:00;;;;;;;4.40;4.10;;;22.90;81.50;;;24.20;38.18;97719.75;5263464;28;20729;-56
2022/05/03 09:47:47;;;;;;;4.47;4.07;;;23.20;81.80;;;24.16;37.44;97714.56;5263848;28;20593;-56
2022/05/03 09:50:39;;;;;;;4.78;4.38;;;23.40;80.40;;;24.38;37.91;97712.81;5264806;28;20298;-56
2022/05/03 09:53:21;;;;;;;5.20;4.40;;;23.50;80.90;;;24.80;36.34;97700.59;5258337;28;20202;-56
2022/05/03 09:55:55;;;;;;;4.60;4.20;;;23.80;78.30;;;24.89;36.77;97698.81;5259832;28;20216;-56
2022/05/03 09:58:28;;;;;;;4.40;4.20;;;24.10;79.20;;;24.77;37.91;97701.47;5264433;28;20374;-57
2022/05/03 10:01:01;;;;;;;4.82;4.53;;;24.00;80.80;;;24.88;37.54;97699.72;5266143;28;20290;-56
2022/05/03 10:03:35;;;;;;;4.63;4.32;;;24.30;79.20;;;24.91;37.57;97697.09;5268181;28;20728;-55
2022/05/03 10:06:08;;;;;;;5.10;4.80;;;24.10;79.50;;;24.92;36.10;97697.94;5264968;28;20223;-56
2022/05/03 10:08:44;;;;;;;4.82;4.53;;;23.90;78.70;;;24.89;37.53;97688.38;5265047;28;20216;-58
2022/05/03 10:11:18;;;;;;;4.25;4.05;;;23.90;80.10;;;24.91;37.84;97686.63;5264065;28;20237;-54
2022/05/03 10:13:53;;;;;;;4.85;4.50;;;24.10;80.10;;;24.96;37.61;97678.78;5263844;28;20295;-54
2022/05/03 10:22:13;;;;;;;4.40;4.10;;;24.00;79.80;;;24.90;37.10;97678.81;5258859;28;20630;-56
2022/05/03 10:24:58;;;;;;;4.55;4.25;;;24.00;78.40;;;24.63;34.43;97675.34;5258422;28;20284;-55
2022/05/03 10:27:32;;;;;;;4.20;3.90;;;23.60;74.40;;;24.62;35.11;97672.75;5261748;28;20215;-55
2022/05/03 10:30:18;;;;;;;4.63;4.32;;;23.80;75.80;;;24.65;34.81;97684.06;5258414;28;20334;-57
2022/05/03 10:33:37;;;;;;;4.65;4.25;;;24.00;73.90;;;24.44;33.82;97674.53;5260371;28;20188;-56
2022/05/03 10:36:43;;;;;;;3.70;3.40;;;23.70;72.90;;;24.53;34.90;97671.03;5236814;28;20741;-57
2022/05/03 10:39:23;;;;;;;4.18;3.75;;;23.90;74.20;;;24.82;33.56;97670.09;5260135;28;20278;-54
2022/05/03 10:42:02;;;;;;;4.20;3.90;;;24.00;72.60;;;24.67;33.80;97669.25;5261853;28;20931;-57
2022/05/03 10:44:44;;;;;;;3.53;3.30;;;24.10;72.40;;;24.70;33.84;97673.63;5261514;28;20245;-53
2022/05/03 10:47:21;;;;;;;4.00;3.70;;;23.90;72.90;;;24.83;34.78;97666.59;5261586;28;20641;-52
2022/05/03 10:50:32;;;;;;;4.13;3.83;;;24.00;73.60;;;24.06;34.43;97671.88;5259096;28;20310;-55
2022/05/03 10:53:33;;;;;;;3.92;3.65;;;23.40;73.10;;;23.99;35.85;97680.59;5170389;28;20780;-52
2022/05/03 10:56:20;;;;;;;3.92;3.72;;;23.10;76.20;;;23.74;36.91;97664.00;5215799;28;20297;-58
2022/05/03 10:59:15;;;;;;;4.53;4.15;;;22.90;77.00;;;23.80;35.86;97667.50;5265754;28;20605;-55
2022/05/03 11:02:10;;;;;;;4.13;3.83;;;22.90;75.70;;;23.08;37.26;97662.03;5259949;28;20920;-58
2022/05/03 11:05:16;;;;;;;4.00;3.70;;;22.30;77.50;;;23.15;38.57;97674.25;5269614;28;20236;-56
2022/05/03 11:08:17;;;;;;;4.53;4.22;;;22.30;79.50;;;23.01;39.40;97662.91;5256114;28;20265;-56
2022/05/03 11:10:50;;;;;;;4.30;4.00;;;22.10;81.50;;;22.93;39.50;97669.78;5261038;28;20285;-55
2022/05/03 11:13:41;;;;;;;4.25;3.67;;;22.00;81.50;;;22.73;39.54;97659.25;5263353;28;20239;-54
2022/05/03 11:16:34;;;;;;;4.82;4.43;;;22.00;81.10;;;22.39;41.70;97663.38;5262458;28;20216;-52
2022/05/03 11:19:10;;;;;;;5.22;4.82;;;21.50;84.50;;;21.57;43.67;97662.59;5260139;28;20222;-55
2022/05/03 11:21:45;;;;;;;4.38;4.07;;;21.10;86.40;;;21.51;44.47;97659.06;5263752;28;20614;-56
2022/05/03 11:24:19;;;;;;;5.50;5.00;;;20.80;86.90;;;21.71;42.69;97660.13;5261272;28;20235;-56
2022/05/03 11:26:54;;;;;;;5.10;4.80;;;20.90;85.50;;;21.84;44.14;97670.69;5260663;28;20219;-52
2022/05/03 11:29:29;;;;;;;5.95;5.60;;;21.10;86.70;;;21.79;43.65;97661.09;5261007;28;20212;-56